Flight Track Log - Related Links

Times and Time Zones

All times are in EDT time to prevent confusion due to time zone crossing. See the EJA941 flight status page for this flight to view local times or setup timezone preferences in your user account.

Time Position Orientation Groundspeed Altitude Reporting Facility
EDT Latitude Longitude Course Direction KTS MPH feet Rate Location/Type
Thu 08:12:18 PM 39.6000 -104.8500 333° Northwest 182 209 6,900  Level Denver TRACON
Thu 08:13:18 PM 39.6500 -104.8833 333° Northwest 207 238 9,600 2,191 Climbing Denver TRACON
Thu 08:14:13 PM 39.7031 -104.8586 20° North 234 269 11,100 1,077 Climbing Denver Center
Thu 08:15:15 PM 39.7844 -104.8211 19° North 315 362 11,700 1,210 Climbing Denver Center
Thu 08:16:17 PM 39.8858 -104.7997 North 349 402 13,600 1,645 Climbing Denver Center
Thu 08:17:19 PM 39.9878 -104.8331 346° North 373 429 15,100 1,210 Climbing Denver Center
Thu 08:18:21 PM 40.0917 -104.8647 347° North 384 442 16,100 1,161 Climbing Denver Center
Thu 08:19:23 PM 40.2144 -104.9017 347° North 423 487 17,500 1,306 Climbing Denver Center
Thu 08:20:25 PM 40.3278 -104.9381 346° North 421 484 18,800 1,548 Climbing Denver Center
Thu 08:21:27 PM 40.4517 -104.9736 348° North 425 489 20,700 1,548 Climbing Denver Center
Thu 08:22:29 PM 40.5658 -105.0111 346° North 428 493 22,000 1,403 Climbing Denver Center
Thu 08:23:31 PM 40.6967 -105.0478 348° North 447 514 23,600 1,412 Climbing Denver Center
Thu 08:24:45 PM 40.7944 -105.1006 338° Northwest 414 476 25,200 1,489 Climbing Denver Center
Thu 08:25:48 PM 40.9047 -105.2275 319° Northwest 433 498 27,000 1,776 Climbing Denver Center
Thu 08:26:50 PM 41.0150 -105.3508 320° Northwest 438 504 28,900 1,548 Climbing Denver Center
Thu 08:27:52 PM 41.1075 -105.4567 319° Northwest 453 521 30,200 1,694 Climbing Denver Center
Thu 08:28:54 PM 41.2164 -105.5819 319° Northwest 462 532 32,400 2,361 Climbing Denver Center
Thu 08:30:27 PM 41.3489 -105.7639 314° West 443 510 36,300 2,162 Climbing Salt Lake Center
Thu 08:31:10 PM 41.3661 -105.8425 286° West 426 490 37,300 962 Climbing Denver Center
Thu 08:32:13 PM 41.4036 -106.0072 287° West 420 483 38,000 336 Climbing Denver Center
Thu 08:33:15 PM 41.4447 -106.1842 287° West 442 509 38,000  Level Denver Center
Thu 08:34:17 PM 41.4792 -106.3381 287° West 449 517 38,000  Level Denver Center
Thu 08:35:19 PM 41.5181 -106.5086 287° West 450 518 38,000  Level Denver Center
Thu 08:36:21 PM 41.5567 -106.6864 286° West 450 518 38,000  Level Denver Center
Thu 08:37:23 PM 41.5936 -106.8408 288° West 453 521 38,000  Level Denver Center
Thu 08:38:25 PM 41.6331 -107.0181 287° West 449 517 38,000  Level Denver Center
Thu 08:39:27 PM 41.6661 -107.1689 286° West 444 511 38,000  Level Denver Center
Thu 08:40:29 PM 41.6986 -107.3197 286° West 442 509 38,000  Level Denver Center
Thu 08:41:31 PM 41.7372 -107.4947 287° West 439 505 38,000  Level Denver Center
Thu 08:42:33 PM 41.7706 -107.6417 287° West 434 499 38,000  Level Denver Center
Thu 08:43:35 PM 41.8131 -107.8119 289° West 434 499 38,000  Level Denver Center
Thu 08:44:37 PM 41.8481 -107.9581 288° West 432 497 38,000  Level Denver Center
Thu 08:45:39 PM 41.8886 -108.1275 288° West 430 495 38,000  Level Denver Center
Thu 08:46:41 PM 41.9242 -108.2744 288° West 432 497 38,000  Level Denver Center
Thu 08:47:43 PM 41.9650 -108.4472 288° West 436 502 38,000  Level Denver Center
Thu 08:49:01 PM 42.0122 -108.6486 288° West 442 509 38,000  Level Salt Lake Center
Thu 08:50:03 PM 42.0481 -108.8028 287° West 452 520 38,000  Level Salt Lake Center
Thu 08:51:05 PM 42.0906 -108.9842 288° West 458 527 38,000  Level Salt Lake Center
Thu 08:52:06 PM 42.1269 -109.1419 287° West 461 531 38,000  Level Salt Lake Center
Thu 08:53:08 PM 42.1681 -109.3247 287° West 460 529 38,000  Level Salt Lake Center
Thu 08:54:10 PM 42.2039 -109.4825 287° West 461 531 38,000  Level Salt Lake Center
Thu 08:55:12 PM 42.2444 -109.6636 287° West 456 525 38,000  Level Salt Lake Center
Thu 08:56:13 PM 42.2794 -109.8192 287° West 455 524 38,000  Level Salt Lake Center
Thu 08:57:15 PM 42.3189 -109.9978 287° West 448 516 38,000  Level Salt Lake Center
Thu 08:58:17 PM 42.3519 -110.1511 286° West 446 513 38,000  Level Salt Lake Center
Thu 08:59:19 PM 42.3922 -110.3294 287° West 446 513 38,000  Level Salt Lake Center
Thu 09:00:20 PM 42.4244 -110.4811 286° West 441 507 38,000  Level Salt Lake Center
Thu 09:01:22 PM 42.4622 -110.6583 286° West 439 505 38,000  Level Salt Lake Center
Thu 09:02:24 PM 42.4947 -110.8092 286° West 438 504 38,000  Level Salt Lake Center
Thu 09:03:26 PM 42.5253 -110.9519 286° West 436 502 38,000  Level Salt Lake Center
Thu 09:04:27 PM 42.5642 -111.1392 286° West 431 496 38,000  Level Salt Lake Center
Thu 09:05:29 PM 42.5969 -111.2942 286° West 429 494 38,000  Level Salt Lake Center
Thu 09:06:31 PM 42.6289 -111.4497 286° West 430 495 38,000  Level Salt Lake Center
Thu 09:07:32 PM 42.6611 -111.6047 286° West 430 495 38,000  Level Salt Lake Center
Thu 09:08:34 PM 42.6928 -111.7614 285° West 431 496 38,000  Level Salt Lake Center
Thu 09:09:35 PM 42.7306 -111.9461 286° West 431 496 38,000  Level Salt Lake Center
Thu 09:10:37 PM 42.7628 -112.1019 286° West 442 509 38,000  Level Salt Lake Center
Thu 09:11:39 PM 42.7936 -112.2614 285° West 451 519 38,000  Level Salt Lake Center
Thu 09:12:40 PM 42.8303 -112.4481 285° West 455 524 38,000  Level Salt Lake Center
Thu 09:13:42 PM 42.8625 -112.6075 285° West 456 525 38,000  Level Salt Lake Center
Thu 09:14:44 PM 42.9411 -112.7758 303° West 474 545 38,000  Level Salt Lake Center
Thu 09:15:45 PM 43.0197 -112.9156 308° West 481 554 38,000  Level Salt Lake Center
Thu 09:16:47 PM 43.0981 -113.0556 307° West 482 555 38,000  Level Salt Lake Center
Thu 09:17:48 PM 43.1911 -113.2222 307° West 490 564 38,000  Level Salt Lake Center
Thu 09:18:50 PM 43.2692 -113.3644 307° West 490 564 38,000  Level Salt Lake Center
Thu 09:19:52 PM 43.3569 -113.5347 305° West 489 563 38,000  Level Salt Lake Center
Thu 09:20:53 PM 43.4333 -113.6797 306° West 488 562 38,000  Level Salt Lake Center
Thu 09:21:55 PM 43.5103 -113.8300 305° West 501 577 38,000  Level Salt Lake Center
Thu 09:22:56 PM 43.5964 -113.9958 306° West 488 562 38,000  Level Salt Lake Center
Thu 09:23:58 PM 43.6697 -114.1431 305° West 486 559 38,000  Level Salt Lake Center
Thu 09:24:59 PM 43.7575 -114.3142 305° West 487 560 38,000  Level Salt Lake Center
Thu 09:26:01 PM 43.8322 -114.4619 305° West 489 563 38,000  Level Salt Lake Center
Thu 09:27:02 PM 43.9206 -114.6339 306° West 492 566 38,000  Level Salt Lake Center
Thu 09:28:04 PM 43.9953 -114.7817 305° West 488 562 38,000  Level Salt Lake Center
Thu 09:29:05 PM 44.0700 -114.9306 305° West 489 563 38,000  Level Salt Lake Center
Thu 09:30:07 PM 44.1553 -115.1061 304° West 492 566 38,000  Level Salt Lake Center
Thu 09:31:09 PM 44.2308 -115.2556 305° West 493 567 38,000  Level Salt Lake Center
Thu 09:32:10 PM 44.3164 -115.4300 304° West 489 563 38,000  Level Salt Lake Center
Thu 09:33:12 PM 44.3900 -115.5814 304° West 491 565 38,000  Level Salt Lake Center
Thu 09:34:13 PM 44.4750 -115.7556 304° West 490 564 38,000  Level Salt Lake Center
Thu 09:35:15 PM 44.5478 -115.9033 305° West 488 562 38,000  Level Salt Lake Center
Thu 09:36:16 PM 44.6314 -116.0781 304° West 490 564 38,000  Level Salt Lake Center
Thu 09:37:18 PM 44.7028 -116.2281 304° West 489 563 38,000  Level Salt Lake Center
Thu 09:38:20 PM 44.7861 -116.4042 304° West 488 562 38,000  Level Salt Lake Center
Thu 09:39:21 PM 44.8583 -116.5564 304° West 489 563 38,000  Level Salt Lake Center
Thu 09:40:23 PM 44.9300 -116.7089 304° West 489 563 38,000  Level Salt Lake Center
Thu 09:41:26 PM 45.0136 -116.8878 304° West 489 563 38,000  Level Salt Lake Center
Thu 09:42:26 PM 45.0847 -117.0422 303° West 490 564 38,000  Level Salt Lake Center
Thu 09:43:28 PM 45.1678 -117.2208 303° West 488 562 38,000  Level Salt Lake Center
Thu 09:44:30 PM 45.2383 -117.3731 303° West 484 557 38,000  Level Salt Lake Center
Thu 09:45:31 PM 45.3197 -117.5511 303° West 482 555 38,000  Level Salt Lake Center
Thu 09:46:45 PM 45.4033 -117.7344 303° West 487 560 38,000  Level Seattle Center
Thu 09:47:46 PM 45.4789 -117.8950 304° West 490 564 38,000  Level Seattle Center
Thu 09:48:47 PM 45.5533 -118.0583 303° West 492 566 38,000  Level Seattle Center
Thu 09:49:47 PM 45.6267 -118.2214 303° West 492 566 38,000  Level Seattle Center
Thu 09:50:48 PM 45.7056 -118.3922 304° West 493 567 38,000  Level Seattle Center
Thu 09:51:49 PM 45.7753 -118.5492 303° West 493 567 38,000  Level Seattle Center
Thu 09:52:50 PM 45.8636 -118.7467 303° West 494 568 38,000  Level Seattle Center
Thu 09:53:51 PM 45.9378 -118.9133 303° West 497 572 38,000  Level Seattle Center
Thu 09:54:52 PM 46.0117 -119.0814 302° West 500 575 38,000  Level Seattle Center
Thu 09:55:53 PM 46.0864 -119.2514 302° West 503 579 38,000  Level Seattle Center
Thu 09:56:54 PM 46.1611 -119.4206 303° West 504 580 38,000  Level Seattle Center
Thu 09:57:55 PM 46.2350 -119.5928 302° West 507 583 38,000  Level Seattle Center
Thu 09:58:56 PM 46.3092 -119.7633 302° West 504 580 38,000  Level Seattle Center
Thu 09:59:58 PM 46.3828 -119.9378 302° West 510 587 38,000 -244 Level Seattle Center
Thu 10:00:59 PM 46.4572 -120.1097 302° West 508 585 37,500 -1,525 Descending Seattle Center
Thu 10:02:00 PM 46.5294 -120.2806 302° West 501 577 34,900 -2,902 Descending Seattle Center
Thu 10:03:01 PM 46.6200 -120.4944 302° West 519 597 31,600 -2,902 Descending Seattle Center
Thu 10:04:02 PM 46.6911 -120.6681 301° West 506 582 29,000 -2,607 Descending Seattle Center
Thu 10:05:03 PM 46.7619 -120.8408 301° West 501 577 26,300 -2,557 Descending Seattle Center
Thu 10:06:04 PM 46.8319 -121.0014 303° West 480 552 23,800 -2,459 Descending Seattle Center
Thu 10:07:05 PM 46.9008 -121.1508 304° West 456 525 21,300 -2,262 Descending Seattle Center
Thu 10:08:06 PM 46.9667 -121.2833 306° West 408 470 19,200 -1,967 Descending Seattle Center
Thu 10:09:07 PM 47.0275 -121.4181 304° West 372 428 17,300 -1,776 Descending Seattle Center
Thu 10:09:44 PM 47.0594 -121.4864 304° West 326 375 16,300 -796 Descending Seattle Center
Thu 10:10:45 PM 47.1094 -121.5919 305° West 315 362 16,000 -155 Descending Seattle Center
Thu 10:11:40 PM 47.1553 -121.6906 304° West 313 360 16,000  Level Seattle Center
Thu 10:12:10 PM 47.1817 -121.7486 304° West 319 367 16,000 -800 Level Seattle Center
Thu 10:12:40 PM 47.2033 -121.7975 303° West 310 357 15,200 -1,377 Descending Seattle Center
Thu 10:13:11 PM 47.2283 -121.8519 304° West 306 352 14,600 -1,082 Descending Seattle Center
Thu 10:13:41 PM 47.2547 -121.9094 304° West 307 353 14,100 -885 Descending Seattle Center
Thu 10:14:12 PM 47.2753 -121.9544 304° West 302 348 13,700 -885 Descending Seattle Center
Thu 10:14:42 PM 47.3008 -122.0114 304° West 300 345 13,200 -885 Descending Seattle Center
Thu 10:15:13 PM 47.3219 -122.0567 305° West 298 343 12,800 -885 Descending Seattle Center
Thu 10:15:43 PM 47.3464 -122.1106 304° West 295 339 12,300 -885 Descending Seattle Center
Thu 10:16:14 PM 47.3686 -122.1603 303° West 284 327 11,900 -787 Descending Seattle Center
Thu 10:16:44 PM 47.3839 -122.2044 297° West 272 313 11,500 -984 Descending Seattle Center
Thu 10:17:15 PM 47.4044 -122.2592 299° West 274 315 10,900 -1,522 Descending Seattle Center
Thu 10:17:51 PM 47.4247 -122.3128 299° West 272 313 9,800 -1,800 Descending Seattle Center
Thu 10:18:45 PM 47.4572 -122.4064 297° West 274 315 8,200 -1,724 Descending Seattle Center
Thu 10:19:18 PM 47.4825 -122.4511 310° West 271 312 7,300 -1,612 Descending Seattle Center
Thu 10:19:52 PM 47.5183 -122.4811 331° Northwest 267 307 6,400 -1,685 Descending Seattle Center
Thu 10:20:47 PM 47.5753 -122.5219 334° Northwest 245 282 4,800 -1,773 Descending Seattle Center
Thu 10:21:20 PM 47.6053 -122.5064 19° North 222 255 3,800 -1,660 Descending Seattle Center
Thu 10:22:21 PM 47.6561 -122.4683 27° Northeast 199 229 2,200 -836 Descending Seattle Center
Thu 10:23:22 PM 47.6364 -122.3967 112° Southeast 193 222 2,100 -390 Descending Seattle Center
Thu 10:24:24 PM 47.5986 -122.3619 148° Southeast 163 188 1,400 -683 Descending Seattle Center
Thu 10:25:25 PM 47.5675 -122.3353 150° Southeast 134 154 700 -689 Descending Seattle Center

Login

Don't have an account? Register now (free) for customized features, flight alerts, and more!